Time;durP1;ratioP1;P1;durP2;ratioP2;P2;SDS_P1;SDS_P2;PMS_P1;PMS_P2;Temp;Humidity;BMP_temperature;BMP_pressure;BME280_temperature;BME280_humidity;BME280_pressure;Samples;Min_cycle;Max_cycle;Signal;HPM_P1;HPM_P2
2021/07/20 00:04:27;;;;;;;20.73;17.60;;;21.20;99.80;;;;;;10576537;28;20218;-80
2021/07/20 00:09:29;;;;;;;18.83;17.03;;;21.10;99.90;;;;;;10553457;28;21038;-81
2021/07/20 00:14:33;;;;;;;20.00;17.30;;;21.10;99.60;;;;;;10555002;28;20215;-80
2021/07/20 00:19:35;;;;;;;18.70;16.80;;;21.10;97.50;;;;;;10547018;28;20188;-80
2021/07/20 00:24:38;;;;;;;20.10;17.70;;;21.10;99.90;;;;;;10490110;28;20262;-81
2021/07/20 00:29:43;;;;;;;19.87;17.47;;;21.00;99.90;;;;;;10518560;28;20659;-81
2021/07/20 00:34:45;;;;;;;19.57;17.33;;;21.00;99.90;;;;;;10526692;28;20315;-81
2021/07/20 00:39:48;;;;;;;23.93;19.10;;;21.00;99.90;;;;;;10521351;28;20231;-80
2021/07/20 00:44:52;;;;;;;21.87;18.57;;;21.00;99.90;;;;;;10531927;28;20221;-80
2021/07/20 00:49:54;;;;;;;19.40;17.50;;;20.90;99.40;;;;;;10537715;28;20227;-80
2021/07/20 00:54:58;;;;;;;20.83;17.40;;;20.80;98.90;;;;;;10527949;28;20311;-81
2021/07/20 01:00:01;;;;;;;20.00;17.90;;;20.60;99.70;;;;;;10540059;28;20468;-81
2021/07/20 01:05:05;;;;;;;18.30;16.50;;;20.60;98.50;;;;;;10524792;28;20252;-81
2021/07/20 01:10:09;;;;;;;20.10;17.93;;;20.50;99.90;;;;;;10534044;28;20247;-81
2021/07/20 01:15:15;;;;;;;19.20;17.23;;;20.40;99.90;;;;;;10537480;28;20216;-80
2021/07/20 01:20:22;;;;;;;19.67;17.67;;;20.30;99.90;;;;;;10535042;28;20196;-80
2021/07/20 01:25:28;;;;;;;19.97;17.80;;;20.20;99.90;;;;;;10493227;28;20250;-80
2021/07/20 01:30:33;;;;;;;20.40;18.23;;;20.20;99.30;;;;;;10511937;28;20272;-81
2021/07/20 01:35:36;;;;;;;19.40;17.40;;;20.10;99.90;;;;;;10523278;28;20239;-81
2021/07/20 01:40:43;;;;;;;19.30;17.20;;;20.10;99.90;;;;;;10528896;28;20197;-80
2021/07/20 01:45:47;;;;;;;19.63;17.63;;;20.00;99.90;;;;;;10517606;28;20299;-81
2021/07/20 01:50:50;;;;;;;22.40;17.80;;;19.90;99.90;;;;;;10523851;28;20228;-80
2021/07/20 01:55:54;;;;;;;19.03;17.00;;;19.90;99.90;;;;;;10531375;28;20307;-80
2021/07/20 02:00:58;;;;;;;19.73;17.30;;;19.90;99.90;;;;;;10497724;28;20247;-81
2021/07/20 02:11:34;;;;;;;20.40;18.20;;;19.70;99.90;;;;;;10514736;28;20223;-80
2021/07/20 02:16:47;;;;;;;21.00;16.70;;;19.50;99.90;;;;;;10510293;28;20200;-80
2021/07/20 02:21:52;;;;;;;20.07;18.03;;;19.40;99.90;;;;;;10503526;28;20319;-80
2021/07/20 02:26:59;;;;;;;19.60;17.67;;;19.30;99.90;;;;;;10507935;28;20207;-80
2021/07/20 02:32:04;;;;;;;19.50;17.70;;;19.20;99.90;;;;;;10534692;28;20315;-80
2021/07/20 02:37:07;;;;;;;21.47;17.50;;;19.20;99.90;;;;;;10497526;28;20275;-79
2021/07/20 02:42:14;;;;;;;19.47;17.10;;;19.20;99.90;;;;;;10521186;28;20230;-79
2021/07/20 02:47:17;;;;;;;19.50;17.47;;;19.10;99.90;;;;;;10508678;28;20265;-79
2021/07/20 02:52:21;;;;;;;19.77;17.83;;;19.00;99.90;;;;;;10526203;28;20224;-79
2021/07/20 02:57:25;;;;;;;20.37;18.37;;;19.00;99.90;;;;;;10511068;28;20660;-79
2021/07/20 03:02:34;;;;;;;18.63;16.77;;;19.00;99.90;;;;;;10518051;28;20269;-79
2021/07/20 03:07:39;;;;;;;19.83;17.77;;;18.90;99.90;;;;;;10531674;28;20205;-79
2021/07/20 03:12:48;;;;;;;20.10;17.97;;;18.90;99.90;;;;;;10518584;28;20215;-79
2021/07/20 03:17:53;;;;;;;19.20;17.37;;;18.90;99.90;;;;;;10536235;28;20210;-79
2021/07/20 03:22:56;;;;;;;20.63;18.10;;;18.80;99.90;;;;;;10511664;28;20220;-79
2021/07/20 03:28:02;;;;;;;19.67;17.13;;;18.80;99.90;;;;;;10523025;28;20625;-79
2021/07/20 03:33:07;;;;;;;18.30;16.03;;;18.80;99.90;;;;;;10515717;28;20345;-79
2021/07/20 03:38:23;;;;;;;19.87;17.87;;;18.70;99.90;;;;;;10537800;28;20253;-79
2021/07/20 03:43:36;;;;;;;18.77;16.90;;;18.70;99.90;;;;;;10519724;28;20306;-79
2021/07/20 03:48:39;;;;;;;19.03;17.23;;;18.60;99.90;;;;;;10524983;28;20654;-79
2021/07/20 03:53:53;;;;;;;18.43;16.63;;;18.60;99.90;;;;;;10501497;28;20239;-78
2021/07/20 03:58:59;;;;;;;17.93;16.03;;;18.60;99.90;;;;;;10535255;28;20612;-79
2021/07/20 04:04:07;;;;;;;18.90;16.23;;;18.60;99.90;;;;;;10522449;28;20660;-78
2021/07/20 04:09:38;;;;;;;16.93;15.30;;;18.60;99.90;;;;;;10516265;28;20263;-79
2021/07/20 04:15:06;;;;;;;18.23;16.50;;;18.50;99.90;;;;;;10498505;28;20216;-79
2021/07/20 04:20:16;;;;;;;17.80;16.10;;;18.50;99.90;;;;;;10511683;28;20200;-79
2021/07/20 04:25:19;;;;;;;17.53;15.73;;;18.60;99.90;;;;;;10508997;28;20218;-79
2021/07/20 04:30:28;;;;;;;20.63;17.07;;;18.60;99.90;;;;;;10522009;28;20215;-79
2021/07/20 04:35:32;;;;;;;18.47;16.40;;;18.60;99.90;;;;;;10506657;28;20753;-80
2021/07/20 04:40:42;;;;;;;21.90;16.67;;;18.60;99.90;;;;;;10539955;28;20204;-80
2021/07/20 04:45:48;;;;;;;17.60;15.90;;;18.60;99.90;;;;;;10548673;28;20227;-78
2021/07/20 04:50:54;;;;;;;18.17;16.27;;;18.70;99.90;;;;;;10538062;28;20220;-80
2021/07/20 04:55:56;;;;;;;18.00;16.30;;;18.70;99.90;;;;;;10534486;28;20306;-79
2021/07/20 05:01:03;;;;;;;18.03;16.13;;;18.80;99.90;;;;;;10530675;28;20665;-81
2021/07/20 05:06:08;;;;;;;16.80;15.10;;;18.90;99.90;;;;;;10548775;28;20297;-80
2021/07/20 05:11:22;;;;;;;18.10;16.30;;;19.00;99.90;;;;;;10536960;28;20711;-80
2021/07/20 05:16:27;;;;;;;16.07;14.30;;;19.10;99.90;;;;;;10551396;28;20204;-80
2021/07/20 05:21:39;;;;;;;17.60;15.83;;;19.20;99.90;;;;;;10537483;28;20187;-79
2021/07/20 05:26:45;;;;;;;20.07;14.17;;;19.30;99.90;;;;;;10553583;28;20196;-80
2021/07/20 05:31:51;;;;;;;16.83;15.20;;;19.40;99.90;;;;;;10486274;28;20232;-80
2021/07/20 05:36:55;;;;;;;17.13;15.00;;;19.40;99.90;;;;;;10505674;28;20235;-80
2021/07/20 05:41:58;;;;;;;19.47;15.50;;;19.50;99.90;;;;;;10534368;28;20257;-79
2021/07/20 05:47:02;;;;;;;18.43;14.90;;;19.60;99.90;;;;;;10536997;28;20273;-81
2021/07/20 05:52:06;;;;;;;17.03;15.27;;;19.60;99.90;;;;;;10511103;28;20227;-81
2021/07/20 05:57:09;;;;;;;18.60;13.57;;;19.70;99.90;;;;;;10502727;28;20212;-81
2021/07/20 06:02:34;;;;;;;14.53;13.03;;;19.70;99.90;;;;;;10535323;28;20305;-81
2021/07/20 06:07:36;;;;;;;19.67;14.53;;;19.80;99.90;;;;;;10546269;28;20644;-81
2021/07/20 06:12:39;;;;;;;22.50;13.67;;;19.90;99.90;;;;;;10526121;22;20228;-84
2021/07/20 06:17:42;;;;;;;17.30;13.70;;;20.00;99.90;;;;;;10462187;28;20211;-83
2021/07/20 06:22:50;;;;;;;16.77;14.80;;;20.00;99.90;;;;;;10479635;28;20317;-84
2021/07/20 06:27:58;;;;;;;15.30;13.70;;;20.10;99.90;;;;;;10462708;28;20662;-84
2021/07/20 06:33:02;;;;;;;19.90;14.27;;;20.20;99.90;;;;;;10448389;28;20605;-84
2021/07/20 06:38:04;;;;;;;16.63;13.47;;;20.30;99.90;;;;;;10447078;28;20200;-83
2021/07/20 06:43:07;;;;;;;14.10;12.57;;;20.40;99.90;;;;;;10461561;28;20224;-83
2021/07/20 06:48:13;;;;;;;14.93;13.10;;;20.50;99.90;;;;;;10461443;28;20231;-84
2021/07/20 06:53:16;;;;;;;16.93;13.40;;;20.70;99.90;;;;;;10472848;28;20323;-83
2021/07/20 06:58:20;;;;;;;14.57;13.07;;;20.80;99.90;;;;;;10454310;28;20569;-84
2021/07/20 07:03:26;;;;;;;13.87;12.47;;;21.00;99.90;;;;;;10469482;28;20704;-84
2021/07/20 07:08:29;;;;;;;15.23;12.33;;;21.20;99.90;;;;;;10455866;28;20205;-83
2021/07/20 07:13:34;;;;;;;15.23;12.77;;;21.40;99.90;;;;;;10424181;28;20261;-82
2021/07/20 07:18:39;;;;;;;14.90;13.10;;;21.60;99.90;;;;;;10479908;28;20205;-82
2021/07/20 07:23:43;;;;;;;13.10;11.80;;;21.80;99.90;;;;;;10480477;28;20216;-82
2021/07/20 07:28:46;;;;;;;13.10;11.80;;;22.00;98.60;;;;;;10496547;28;20204;-82
2021/07/20 07:33:51;;;;;;;17.60;11.03;;;22.20;98.30;;;;;;10469876;28;20278;-82
2021/07/20 07:38:55;;;;;;;13.17;11.53;;;22.40;98.00;;;;;;10460205;28;20624;-82
2021/07/20 07:43:58;;;;;;;12.27;11.07;;;22.60;98.50;;;;;;10477696;28;20219;-82
2021/07/20 07:49:02;;;;;;;13.07;11.60;;;23.00;99.00;;;;;;10451601;28;20471;-82
2021/07/20 07:54:04;;;;;;;14.27;11.07;;;23.40;98.30;;;;;;10435467;28;20259;-82
2021/07/20 07:59:09;;;;;;;11.17;9.93;;;23.80;96.30;;;;;;10451134;28;20246;-82
2021/07/20 08:04:13;;;;;;;11.63;10.13;;;24.20;95.00;;;;;;10445712;28;20244;-82
2021/07/20 08:09:18;;;;;;;11.00;10.00;;;24.60;93.70;;;;;;10503311;28;20200;-82
2021/07/20 08:14:20;;;;;;;14.30;10.00;;;25.10;92.70;;;;;;10478854;28;20729;-82
2021/07/20 08:19:26;;;;;;;11.70;9.70;;;25.40;91.60;;;;;;10507215;28;20200;-82
2021/07/20 08:24:30;;;;;;;10.93;9.83;;;25.80;90.90;;;;;;10469933;28;20644;-82
2021/07/20 08:29:35;;;;;;;12.60;9.60;;;26.30;88.20;;;;;;10468338;28;20204;-83
2021/07/20 08:34:44;;;;;;;10.10;8.93;;;26.70;87.10;;;;;;10482323;28;20722;-82
2021/07/20 08:39:49;;;;;;;8.80;7.87;;;26.90;88.50;;;;;;10486566;28;20201;-83
2021/07/20 08:45:11;;;;;;;9.23;8.40;;;27.40;84.80;;;;;;10468073;28;20267;-82
2021/07/20 08:50:24;;;;;;;9.47;8.10;;;27.70;80.50;;;;;;10453586;28;20197;-83
2021/07/20 08:55:30;;;;;;;12.20;9.57;;;27.90;79.10;;;;;;10468338;28;20232;-83
2021/07/20 09:00:38;;;;;;;11.03;9.90;;;28.10;79.30;;;;;;10492220;28;20203;-83
2021/07/20 09:05:47;;;;;;;10.03;9.00;;;28.30;77.90;;;;;;10459808;28;20610;-83
2021/07/20 09:10:57;;;;;;;13.00;9.37;;;28.60;76.10;;;;;;10477727;28;20304;-83
2021/07/20 09:16:10;;;;;;;10.93;9.53;;;28.30;78.00;;;;;;10476049;28;20290;-83
2021/07/20 09:21:17;;;;;;;10.03;9.03;;;28.40;77.80;;;;;;10479637;28;20272;-83
2021/07/20 09:26:23;;;;;;;11.40;10.20;;;28.70;75.20;;;;;;10519699;28;20220;-83
2021/07/20 09:31:33;;;;;;;11.43;10.23;;;28.70;72.90;;;;;;10497766;28;20575;-83
2021/07/20 09:36:44;;;;;;;9.87;8.97;;;28.70;73.10;;;;;;10489081;28;20260;-83
2021/07/20 09:41:51;;;;;;;17.90;16.07;;;28.90;74.60;;;;;;10468286;28;21016;-83
2021/07/20 09:47:07;;;;;;;11.53;10.33;;;29.20;72.30;;;;;;10494843;28;20285;-83
2021/07/20 09:52:36;;;;;;;10.13;9.13;;;29.50;72.30;;;;;;10481155;28;20350;-83
2021/07/20 09:57:49;;;;;;;12.60;10.93;;;30.00;69.30;;;;;;10462026;28;20246;-83
2021/07/20 10:03:08;;;;;;;11.40;10.20;;;30.60;66.00;;;;;;10460457;28;20224;-83
2021/07/20 10:08:22;;;;;;;11.10;10.10;;;31.40;66.50;;;;;;10498351;28;20295;-83
2021/07/20 10:13:33;;;;;;;11.70;10.70;;;32.40;63.80;;;;;;10490622;28;20598;-83
2021/07/20 10:18:43;;;;;;;10.90;9.90;;;33.50;60.10;;;;;;10493201;28;20291;-83
2021/07/20 10:23:54;;;;;;;12.37;11.07;;;34.60;58.40;;;;;;10480492;28;20593;-83
2021/07/20 10:29:05;;;;;;;11.90;10.63;;;34.40;55.20;;;;;;10497082;28;20192;-83
2021/07/20 10:34:10;;;;;;;11.50;10.30;;;32.80;57.10;;;;;;10481887;28;20299;-83
2021/07/20 10:39:18;;;;;;;12.03;10.93;;;31.40;59.60;;;;;;10464495;28;20579;-83
2021/07/20 10:44:26;;;;;;;13.23;11.10;;;30.20;62.40;;;;;;10481149;28;20214;-82
2021/07/20 10:49:34;;;;;;;14.37;11.20;;;29.20;63.80;;;;;;10498665;28;20584;-82
2021/07/20 10:54:44;;;;;;;12.77;11.57;;;28.50;64.90;;;;;;10480826;28;20307;-82
2021/07/20 11:00:02;;;;;;;12.93;11.53;;;28.10;66.30;;;;;;10466470;28;20236;-83
2021/07/20 11:05:07;;;;;;;13.07;11.30;;;27.60;65.20;;;;;;10465505;28;20248;-82
2021/07/20 11:10:15;;;;;;;12.43;11.10;;;27.30;69.60;;;;;;10499422;28;20197;-82
2021/07/20 11:15:21;;;;;;;12.13;10.97;;;27.10;71.10;;;;;;10460668;28;20675;-83
2021/07/20 11:20:24;;;;;;;13.73;12.33;;;26.90;72.20;;;;;;10485598;28;20240;-82
2021/07/20 11:25:28;;;;;;;13.83;12.43;;;26.80;71.90;;;;;;10500123;28;20696;-82
2021/07/20 11:30:33;;;;;;;12.73;11.53;;;26.60;71.40;;;;;;10465301;28;20291;-82
2021/07/20 11:35:40;;;;;;;14.90;11.60;;;26.40;71.00;;;;;;10484271;28;20311;-83
2021/07/20 11:40:50;;;;;;;12.90;11.57;;;26.30;71.40;;;;;;10466447;28;20279;-83
2021/07/20 11:45:56;;;;;;;13.40;12.00;;;26.10;70.50;;;;;;10494015;28;20248;-83
2021/07/20 11:51:06;;;;;;;14.27;12.67;;;25.90;72.60;;;;;;10482069;28;20212;-83
2021/07/20 11:56:25;;;;;;;12.83;11.53;;;25.70;73.20;;;;;;10489082;28;20298;-83
2021/07/20 12:01:53;;;;;;;13.83;12.53;;;25.70;73.80;;;;;;10479729;28;20203;-83
2021/07/20 12:07:02;;;;;;;14.50;13.00;;;25.90;72.40;;;;;;10469476;28;20231;-82
2021/07/20 12:12:07;;;;;;;13.57;12.20;;;25.90;71.20;;;;;;10475950;28;20306;-83
2021/07/20 12:17:09;;;;;;;13.23;11.37;;;25.80;73.30;;;;;;10491482;28;20627;-82
2021/07/20 12:22:12;;;;;;;12.60;11.30;;;25.70;72.50;;;;;;10460639;28;20204;-82
2021/07/20 12:27:17;;;;;;;13.03;11.73;;;25.50;70.10;;;;;;10458731;28;20224;-82
2021/07/20 12:32:19;;;;;;;13.43;12.10;;;25.40;69.90;;;;;;10460006;28;20232;-82
2021/07/20 12:37:22;;;;;;;13.00;11.70;;;25.30;76.30;;;;;;10463930;28;20292;-82
2021/07/20 12:42:33;;;;;;;11.70;10.53;;;25.30;73.70;;;;;;10454315;28;20205;-83
2021/07/20 12:47:39;;;;;;;13.30;11.90;;;25.30;73.00;;;;;;10470036;28;20200;-82
2021/07/20 12:52:44;;;;;;;13.30;11.10;;;25.50;72.00;;;;;;10474548;28;20303;-83
2021/07/20 12:57:52;;;;;;;11.90;10.70;;;25.40;69.90;;;;;;10493348;28;20196;-82
2021/07/20 13:02:58;;;;;;;15.53;11.77;;;25.40;71.10;;;;;;10482641;28;20223;-83
2021/07/20 13:08:02;;;;;;;15.50;11.37;;;25.40;71.60;;;;;;10516267;28;20203;-83
2021/07/20 13:13:07;;;;;;;14.77;12.40;;;25.30;67.90;;;;;;10502986;28;20225;-82
2021/07/20 13:18:12;;;;;;;12.83;11.53;;;25.20;68.50;;;;;;10522364;28;20292;-83
2021/07/20 13:23:14;;;;;;;12.97;11.30;;;25.00;69.70;;;;;;10469160;28;20215;-83
2021/07/20 13:28:19;;;;;;;13.37;12.00;;;24.90;71.30;;;;;;10504129;28;20196;-83
2021/07/20 13:33:21;;;;;;;12.60;11.40;;;24.90;69.40;;;;;;10502302;28;20408;-83
2021/07/20 13:38:29;;;;;;;11.60;10.40;;;24.80;71.80;;;;;;10466164;28;20686;-82
2021/07/20 13:43:34;;;;;;;13.33;11.17;;;24.80;74.10;;;;;;10497284;28;20213;-82
2021/07/20 13:48:46;;;;;;;12.50;11.20;;;24.80;72.60;;;;;;10458017;28;20215;-82
2021/07/20 13:53:53;;;;;;;12.40;11.30;;;24.80;72.20;;;;;;10495686;28;20299;-83
2021/07/20 13:59:00;;;;;;;11.53;10.17;;;24.80;69.80;;;;;;10499374;28;20223;-83
2021/07/20 14:04:02;;;;;;;10.60;9.50;;;24.80;73.50;;;;;;10444476;28;20510;-82
2021/07/20 14:09:06;;;;;;;10.63;9.60;;;24.80;70.00;;;;;;10466260;28;20227;-82
2021/07/20 14:14:11;;;;;;;10.30;9.20;;;24.80;71.70;;;;;;10451587;28;20608;-82
2021/07/20 14:19:18;;;;;;;13.57;11.13;;;24.80;77.20;;;;;;10498543;28;20202;-82
2021/07/20 14:24:22;;;;;;;10.67;9.63;;;24.70;70.00;;;;;;10450942;28;20574;-82
2021/07/20 14:29:30;;;;;;;10.60;9.60;;;24.70;70.40;;;;;;10448672;28;20201;-82
2021/07/20 14:34:43;;;;;;;10.20;9.20;;;24.70;68.00;;;;;;10491150;28;20220;-82
2021/07/20 14:39:55;;;;;;;14.43;10.00;;;24.70;74.80;;;;;;10463618;28;20223;-82
2021/07/20 14:45:07;;;;;;;11.00;9.87;;;24.60;74.90;;;;;;10480027;28;20209;-82
2021/07/20 14:50:17;;;;;;;11.40;10.00;;;24.60;73.20;;;;;;10465709;28;20227;-82
2021/07/20 14:55:21;;;;;;;13.83;10.10;;;24.60;78.80;;;;;;10445931;28;20228;-82
2021/07/20 15:00:53;;;;;;;14.70;10.20;;;24.50;69.80;;;;;;10474894;28;20201;-82
2021/07/20 15:05:56;;;;;;;10.90;9.80;;;24.60;69.60;;;;;;10465778;28;20223;-82
2021/07/20 15:11:00;;;;;;;11.13;10.03;;;24.60;69.60;;;;;;10485287;28;20200;-83
2021/07/20 15:16:05;;;;;;;11.07;9.87;;;24.60;69.40;;;;;;10501631;28;20258;-82
2021/07/20 15:21:08;;;;;;;10.70;9.70;;;24.50;69.90;;;;;;10501370;28;20204;-82
2021/07/20 15:26:10;;;;;;;12.20;10.27;;;24.50;72.50;;;;;;10479361;28;20224;-82
2021/07/20 15:31:15;;;;;;;14.23;10.20;;;24.50;70.80;;;;;;10478067;28;20219;-82
2021/07/20 15:36:20;;;;;;;10.37;9.33;;;24.50;67.70;;;;;;10463626;28;20229;-83
2021/07/20 15:41:24;;;;;;;16.07;10.37;;;24.50;69.10;;;;;;10466204;28;20193;-83
2021/07/20 15:46:28;;;;;;;11.23;10.10;;;24.50;68.50;;;;;;10451692;28;20756;-83
2021/07/20 15:51:31;;;;;;;11.77;10.57;;;24.50;68.70;;;;;;10453002;28;20215;-83
2021/07/20 15:56:33;;;;;;;15.63;11.00;;;24.50;67.50;;;;;;10434300;28;20672;-83
2021/07/20 16:01:38;;;;;;;12.07;10.57;;;24.50;67.50;;;;;;10459113;28;20724;-82
2021/07/20 16:06:41;;;;;;;10.57;9.50;;;24.60;66.80;;;;;;10465680;28;20759;-83
2021/07/20 16:11:43;;;;;;;12.10;10.80;;;24.60;67.10;;;;;;10455880;28;20202;-83
2021/07/20 16:16:48;;;;;;;12.37;11.10;;;24.60;67.10;;;;;;10453049;28;20235;-82
2021/07/20 16:21:50;;;;;;;13.30;11.23;;;24.60;65.60;;;;;;10442209;28;20227;-83
2021/07/20 16:26:52;;;;;;;13.10;11.70;;;24.50;66.90;;;;;;10439401;28;20217;-83
2021/07/20 16:31:56;;;;;;;11.47;10.37;;;24.50;65.90;;;;;;10456958;28;20204;-83
2021/07/20 16:36:58;;;;;;;14.20;12.80;;;24.50;71.50;;;;;;10468734;28;20957;-84
2021/07/20 16:42:00;;;;;;;12.97;11.53;;;24.50;64.70;;;;;;10476806;28;20200;-83
2021/07/20 16:47:04;;;;;;;11.93;10.83;;;24.40;67.70;;;;;;10433732;28;20227;-83
2021/07/20 16:52:07;;;;;;;11.37;10.13;;;24.40;68.10;;;;;;10467207;28;20703;-82
2021/07/20 16:57:15;;;;;;;11.70;10.60;;;24.40;66.00;;;;;;10473470;28;20245;-83
2021/07/20 17:02:19;;;;;;;14.53;10.43;;;24.30;68.70;;;;;;10427537;28;20201;-83
2021/07/20 17:07:24;;;;;;;10.80;9.80;;;24.30;70.20;;;;;;10476436;28;20193;-83
2021/07/20 17:12:26;;;;;;;12.33;11.00;;;24.30;68.60;;;;;;10449527;28;20329;-82
2021/07/20 17:17:30;;;;;;;12.20;10.67;;;24.20;70.70;;;;;;10469715;28;20201;-83
2021/07/20 17:22:33;;;;;;;11.53;10.40;;;24.20;71.80;;;;;;10501334;28;20202;-83
2021/07/20 17:27:36;;;;;;;12.30;11.00;;;24.20;67.80;;;;;;10467659;28;20228;-83
2021/07/20 17:32:39;;;;;;;12.60;11.30;;;24.10;77.30;;;;;;10471185;28;20311;-83
2021/07/20 17:37:44;;;;;;;12.53;11.23;;;24.00;69.70;;;;;;10473316;28;20687;-83
2021/07/20 17:42:47;;;;;;;11.30;9.77;;;24.00;75.80;;;;;;10506519;28;20220;-83
2021/07/20 17:47:50;;;;;;;10.87;9.67;;;24.00;70.40;;;;;;10500016;28;20205;-82
2021/07/20 17:52:53;;;;;;;16.03;11.47;;;24.00;71.00;;;;;;10477747;28;20670;-83
2021/07/20 17:57:56;;;;;;;12.13;10.57;;;24.00;73.40;;;;;;10459176;28;20212;-83
2021/07/20 18:03:00;;;;;;;13.47;10.10;;;23.90;68.60;;;;;;10469786;28;20245;-83
2021/07/20 18:08:02;;;;;;;11.83;10.60;;;23.90;68.60;;;;;;10442806;28;20308;-83
2021/07/20 18:13:04;;;;;;;12.10;10.13;;;23.90;69.50;;;;;;10464952;28;20224;-83
2021/07/20 18:18:08;;;;;;;11.23;9.17;;;23.90;69.90;;;;;;10476743;28;20209;-83
2021/07/20 18:23:11;;;;;;;12.27;10.57;;;23.80;70.10;;;;;;10470180;28;20224;-82
2021/07/20 18:28:13;;;;;;;10.57;9.40;;;23.80;70.50;;;;;;10455305;28;20201;-82
2021/07/20 18:33:17;;;;;;;9.17;8.37;;;23.70;70.90;;;;;;10455052;28;20250;-82
2021/07/20 18:38:19;;;;;;;10.00;9.03;;;23.60;72.00;;;;;;10477774;28;20274;-82
2021/07/20 18:43:21;;;;;;;10.00;9.00;;;23.60;72.70;;;;;;10469939;28;20243;-82
2021/07/20 18:48:25;;;;;;;10.13;9.10;;;23.50;72.70;;;;;;10434042;28;20201;-82
2021/07/20 18:53:28;;;;;;;10.70;9.60;;;23.40;77.00;;;;;;10474905;28;20247;-82
2021/07/20 18:58:30;;;;;;;9.63;8.70;;;23.40;80.00;;;;;;10483988;28;20212;-82
2021/07/20 19:03:33;;;;;;;10.90;9.27;;;23.30;82.40;;;;;;10447989;28;20216;-83
2021/07/20 19:08:37;;;;;;;9.27;8.47;;;23.20;85.90;;;;;;10459286;28;20211;-82
2021/07/20 19:13:40;;;;;;;10.07;8.90;;;23.10;81.60;;;;;;10479153;28;20217;-82
2021/07/20 19:18:43;;;;;;;9.50;8.60;;;23.10;84.00;;;;;;10480865;28;20197;-82
2021/07/20 19:23:45;;;;;;;12.77;9.70;;;23.00;81.10;;;;;;10453619;28;20243;-82
2021/07/20 19:28:47;;;;;;;10.90;8.83;;;22.90;82.40;;;;;;10466706;28;20201;-83
2021/07/20 19:33:52;;;;;;;9.83;8.87;;;22.90;79.50;;;;;;10454106;28;20230;-82
2021/07/20 19:38:54;;;;;;;9.80;8.90;;;22.70;81.40;;;;;;10474474;28;20670;-82
2021/07/20 19:43:56;;;;;;;9.77;8.77;;;22.60;81.00;;;;;;10442868;28;20225;-82
2021/07/20 19:49:00;;;;;;;10.30;9.40;;;22.40;81.50;;;;;;10432758;28;20293;-82
2021/07/20 19:54:02;;;;;;;10.93;9.93;;;22.30;84.40;;;;;;10441257;28;20336;-82
2021/07/20 19:59:04;;;;;;;10.67;9.60;;;22.20;82.60;;;;;;10446416;28;20287;-82
2021/07/20 20:04:07;;;;;;;10.53;9.23;;;22.00;82.20;;;;;;10448477;28;20222;-82
2021/07/20 20:09:10;;;;;;;9.33;8.50;;;21.90;81.50;;;;;;10446103;28;20231;-82
2021/07/20 20:14:12;;;;;;;9.60;8.70;;;21.70;83.00;;;;;;10498042;28;20308;-81
2021/07/20 20:19:16;;;;;;;11.80;9.73;;;21.70;83.90;;;;;;10498290;28;20200;-82
2021/07/20 20:24:18;;;;;;;12.67;9.80;;;21.50;84.70;;;;;;10460369;28;20225;-82
2021/07/20 20:29:20;;;;;;;10.03;9.03;;;21.50;85.00;;;;;;10480466;28;20220;-82
2021/07/20 20:34:24;;;;;;;11.17;10.03;;;21.40;86.00;;;;;;10471695;28;20226;-82
2021/07/20 20:39:26;;;;;;;11.53;9.80;;;21.40;84.30;;;;;;10450870;28;20316;-82
2021/07/20 20:44:28;;;;;;;13.47;10.00;;;21.30;86.10;;;;;;10457015;28;20286;-82
2021/07/20 20:49:34;;;;;;;12.00;9.67;;;21.20;87.90;;;;;;10464651;28;20204;-82
2021/07/20 20:54:37;;;;;;;10.63;9.60;;;21.10;85.80;;;;;;10452124;28;20221;-82
2021/07/20 20:59:39;;;;;;;11.33;10.00;;;21.00;87.00;;;;;;10435590;28;20650;-82
2021/07/20 21:04:42;;;;;;;12.00;10.80;;;21.00;89.20;;;;;;10461618;28;20217;-82
2021/07/20 21:09:45;;;;;;;11.90;9.67;;;20.90;88.70;;;;;;10447802;28;20196;-83
2021/07/20 21:14:47;;;;;;;10.87;9.83;;;20.80;90.20;;;;;;10455324;28;20543;-82
2021/07/20 21:19:51;;;;;;;10.43;9.33;;;20.80;89.00;;;;;;10417677;28;20252;-82
2021/07/20 21:24:53;;;;;;;10.90;9.80;;;20.80;89.40;;;;;;10429660;28;20236;-82
2021/07/20 21:29:55;;;;;;;11.00;10.07;;;20.70;89.80;;;;;;10426164;28;20227;-82
2021/07/20 21:34:59;;;;;;;10.33;8.90;;;20.60;88.60;;;;;;10429384;28;20233;-83
2021/07/20 21:40:04;;;;;;;9.53;8.63;;;20.60;88.70;;;;;;10468004;28;20302;-83
2021/07/20 21:45:08;;;;;;;13.50;10.40;;;20.50;90.00;;;;;;10452493;28;20303;-83
2021/07/20 21:50:13;;;;;;;10.30;9.30;;;20.50;90.60;;;;;;10430633;28;20202;-82
2021/07/20 21:55:15;;;;;;;11.50;9.90;;;20.40;91.50;;;;;;10456361;28;20599;-82
2021/07/20 22:00:20;;;;;;;10.60;9.57;;;20.30;91.30;;;;;;10453611;28;20209;-82
2021/07/20 22:05:24;;;;;;;10.87;8.67;;;20.20;91.00;;;;;;10458984;28;20223;-82
2021/07/20 22:10:28;;;;;;;15.13;10.00;;;20.20;92.00;;;;;;10458975;28;20232;-82
2021/07/20 22:15:30;;;;;;;11.37;9.17;;;20.10;91.10;;;;;;10429943;28;20225;-83
2021/07/20 22:20:35;;;;;;;9.83;8.80;;;20.10;91.60;;;;;;10449561;28;20306;-82
2021/07/20 22:25:39;;;;;;;9.53;8.53;;;20.00;90.60;;;;;;10456524;28;20718;-82
2021/07/20 22:30:44;;;;;;;9.27;8.43;;;20.00;91.50;;;;;;10444694;28;20291;-82
2021/07/20 22:35:50;;;;;;;10.53;9.20;;;20.00;92.10;;;;;;10451894;28;20224;-82
2021/07/20 22:40:53;;;;;;;10.10;9.03;;;19.90;91.40;;;;;;10468151;28;20246;-82
2021/07/20 22:45:56;;;;;;;9.90;8.90;;;19.90;91.90;;;;;;10448292;28;20216;-83
2021/07/20 22:51:00;;;;;;;9.30;8.40;;;19.90;91.70;;;;;;10455782;28;20197;-82
2021/07/20 22:56:02;;;;;;;8.70;7.80;;;20.00;91.40;;;;;;10460569;28;20256;-82
2021/07/20 23:01:08;;;;;;;9.00;8.10;;;20.00;91.50;;;;;;10463053;28;20295;-82
2021/07/20 23:06:11;;;;;;;9.37;8.47;;;20.00;92.50;;;;;;10467066;28;20958;-82
2021/07/20 23:11:13;;;;;;;9.80;8.90;;;20.00;92.60;;;;;;10467251;28;20288;-82
2021/07/20 23:16:16;;;;;;;9.80;8.80;;;20.00;92.70;;;;;;10440448;28;20225;-82
2021/07/20 23:21:19;;;;;;;8.90;8.00;;;20.00;92.40;;;;;;10478832;28;20586;-82
2021/07/20 23:26:21;;;;;;;9.90;8.53;;;19.90;92.00;;;;;;10443264;28;20229;-82
2021/07/20 23:31:24;;;;;;;8.70;7.90;;;19.90;92.10;;;;;;10463472;28;20232;-82
2021/07/20 23:36:27;;;;;;;10.77;7.30;;;19.80;91.80;;;;;;10443255;28;20216;-82
2021/07/20 23:41:29;;;;;;;9.40;8.50;;;19.70;91.20;;;;;;10438087;28;20267;-82
2021/07/20 23:46:31;;;;;;;10.83;8.67;;;19.70;92.40;;;;;;10457180;28;20217;-82
2021/07/20 23:51:35;;;;;;;7.37;6.60;;;19.60;91.70;;;;;;10420886;28;20300;-82
2021/07/20 23:56:37;;;;;;;8.60;7.80;;;19.60;91.80;;;;;;10444050;28;20224;-82
